Terminal Aerodrome Forecast
Issued by NWS Chicago, IL

Home | Current Version | Previous Version | Graphics & Text | Print | Product List | Glossary On
Versions: 1 2 3 4 5 6 7 8 9 10 11 12 13 14 15 16 17 18 19 20 21
000
FTUS43 KLOT 201528 AAA
TAFRFD
TAF AMD
KRFD 201528Z 2015/2112 22015G24KT P6SM SCT200
     FM210100 21016G24KT P6SM SCT200 WS012/22050KT
     FM210800 22013KT P6SM BKN150=

USA.gov is the U.S. government's official web portal to all federal, state and local government web resources and services.